Time;durP1;ratioP1;P1;durP2;ratioP2;P2;SDS_P1;SDS_P2;PMS_P1;PMS_P2;Temp;Humidity;BMP_temperature;BMP_pressure;BME280_temperature;BME280_humidity;BME280_pressure;Samples;Min_cycle;Max_cycle;Signal;HPM_P1;HPM_P2
2024/02/26 00:01:41;;;;;;;1.55;0.57;;;9.70;99.90;;;;;;4984942;28;20022;-70
2024/02/26 00:04:06;;;;;;;7.40;0.52;;;9.70;99.90;;;;;;4982331;28;20035;-70
2024/02/26 00:06:32;;;;;;;3.08;1.00;;;9.70;99.90;;;;;;4999984;28;20109;-70
2024/02/26 00:08:58;;;;;;;1.20;0.15;;;9.70;99.90;;;;;;4980405;28;20026;-70
2024/02/26 00:11:24;;;;;;;1.17;0.43;;;9.70;99.90;;;;;;4980207;28;20054;-70
2024/02/26 00:13:50;;;;;;;2.70;0.70;;;9.60;99.90;;;;;;4979865;28;20081;-70
2024/02/26 00:16:16;;;;;;;0.73;0.50;;;9.70;99.90;;;;;;4999935;28;20065;-70
2024/02/26 00:18:41;;;;;;;0.20;0.20;;;9.60;99.90;;;;;;4983880;28;20471;-70
2024/02/26 00:21:07;;;;;;;0.70;0.57;;;9.60;99.90;;;;;;4984558;28;20046;-70
2024/02/26 00:23:33;;;;;;;0.30;0.25;;;9.60;99.90;;;;;;4995849;28;20128;-70
2024/02/26 00:25:58;;;;;;;1.27;0.52;;;9.50;99.90;;;;;;4981775;28;20031;-70
2024/02/26 00:28:24;;;;;;;0.73;0.38;;;9.50;99.90;;;;;;4983052;28;20042;-70
2024/02/26 00:30:55;;;;;;;0.95;0.60;;;9.40;99.90;;;;;;4982873;28;20065;-70
2024/02/26 00:33:22;;;;;;;0.40;0.40;;;9.40;99.90;;;;;;4982458;28;20061;-70
2024/02/26 00:35:48;;;;;;;0.40;0.38;;;9.40;99.90;;;;;;4981975;28;20095;-70
2024/02/26 00:38:15;;;;;;;1.90;0.57;;;9.40;99.90;;;;;;4982230;28;20023;-70
2024/02/26 00:40:40;;;;;;;1.17;0.85;;;9.50;99.90;;;;;;4983073;28;20529;-69
2024/02/26 00:43:07;;;;;;;0.40;0.40;;;9.50;99.90;;;;;;4979525;28;20035;-69
2024/02/26 00:45:33;;;;;;;0.43;0.40;;;9.50;99.90;;;;;;4983079;28;20031;-70
2024/02/26 00:48:04;;;;;;;3.60;1.23;;;9.60;99.90;;;;;;4993312;28;20460;-69
2024/02/26 00:50:30;;;;;;;;;;;9.60;99.90;;;;;;4983367;28;20034;-69
2024/02/26 00:52:56;;;;;;;1.27;0.55;;;9.50;99.90;;;;;;4994780;28;19998;-69
2024/02/26 00:55:22;;;;;;;1.00;0.50;;;9.50;99.90;;;;;;4980077;28;20033;-69
2024/02/26 00:57:47;;;;;;;1.05;0.57;;;9.50;99.90;;;;;;4981801;28;20030;-69
2024/02/26 01:00:14;;;;;;;2.08;0.80;;;9.40;99.90;;;;;;4979941;28;20511;-69
2024/02/26 01:02:41;;;;;;;0.40;0.40;;;9.40;99.90;;;;;;4994989;28;20049;-69
2024/02/26 01:05:11;;;;;;;0.57;0.43;;;9.30;99.90;;;;;;4981845;28;20027;-68
2024/02/26 01:07:37;;;;;;;1.20;0.70;;;9.30;99.90;;;;;;4996497;28;20050;-69
2024/02/26 01:10:03;;;;;;;2.20;0.80;;;9.30;99.90;;;;;;4995808;28;20027;-69
2024/02/26 01:12:29;;;;;;;1.30;0.68;;;9.40;99.90;;;;;;4983140;28;20407;-69
2024/02/26 01:14:55;;;;;;;0.95;0.50;;;9.40;99.90;;;;;;4978820;28;20510;-69
2024/02/26 01:17:21;;;;;;;0.93;0.35;;;9.50;99.90;;;;;;4977709;28;20038;-69
2024/02/26 01:19:47;;;;;;;1.33;0.75;;;9.50;99.90;;;;;;4981488;28;20026;-68
2024/02/26 01:22:12;;;;;;;2.38;0.73;;;9.50;99.90;;;;;;4977477;28;20054;-68
2024/02/26 01:24:38;;;;;;;0.75;0.22;;;9.60;99.90;;;;;;4981105;28;20071;-69
2024/02/26 01:27:04;;;;;;;0.70;0.60;;;9.60;99.90;;;;;;4993656;28;20448;-69
2024/02/26 01:29:30;;;;;;;0.65;0.30;;;9.60;99.90;;;;;;4981862;28;20070;-69
2024/02/26 01:31:56;;;;;;;1.13;0.80;;;9.60;99.90;;;;;;4978907;28;20077;-70
2024/02/26 01:34:22;;;;;;;0.47;0.25;;;9.60;99.90;;;;;;4995302;28;20030;-70
2024/02/26 01:36:47;;;;;;;1.17;0.47;;;9.60;99.90;;;;;;4980011;28;20117;-70
2024/02/26 01:39:15;;;;;;;0.65;0.38;;;9.60;99.90;;;;;;4979105;28;20069;-70
2024/02/26 01:41:41;;;;;;;2.92;0.50;;;9.60;99.90;;;;;;4979271;28;20038;-70
2024/02/26 01:44:07;;;;;;;0.43;0.40;;;9.50;99.90;;;;;;4976945;28;20028;-70
2024/02/26 01:46:35;;;;;;;0.75;0.32;;;9.50;99.90;;;;;;4982025;28;20089;-69
2024/02/26 01:49:03;;;;;;;0.73;0.60;;;9.50;99.90;;;;;;4984795;28;20042;-69
2024/02/26 01:51:30;;;;;;;1.20;0.60;;;9.50;99.90;;;;;;4979999;28;20026;-69
2024/02/26 01:53:58;;;;;;;0.20;0.20;;;9.50;99.90;;;;;;4979589;28;20027;-69
2024/02/26 01:56:30;;;;;;;3.17;0.38;;;9.30;99.90;;;;;;4961185;28;20035;-69
2024/02/26 01:58:56;;;;;;;0.47;0.40;;;9.30;99.90;;;;;;4981057;28;20113;-69
2024/02/26 02:01:28;;;;;;;0.28;0.25;;;9.30;99.90;;;;;;4981790;28;20392;-70
2024/02/26 02:03:56;;;;;;;;;;;9.20;99.90;;;;;;4979196;28;20030;-69
2024/02/26 02:06:21;;;;;;;0.52;0.47;;;9.20;99.90;;;;;;4969016;28;19989;-69
2024/02/26 02:08:48;;;;;;;0.98;0.52;;;9.20;99.90;;;;;;4977166;28;20133;-69
2024/02/26 02:11:14;;;;;;;0.88;0.60;;;9.20;99.90;;;;;;4976312;28;20491;-69
2024/02/26 02:13:40;;;;;;;0.68;0.52;;;9.20;99.90;;;;;;4991087;28;20031;-69
2024/02/26 02:16:07;;;;;;;1.25;0.70;;;9.10;99.90;;;;;;4979532;28;20042;-69
2024/02/26 02:18:33;;;;;;;2.08;0.52;;;9.00;99.90;;;;;;4977524;28;20035;-69
2024/02/26 02:21:03;;;;;;;0.85;0.60;;;9.00;99.90;;;;;;4993362;28;20395;-69
2024/02/26 02:23:28;;;;;;;0.90;0.40;;;9.00;99.90;;;;;;4978807;28;20122;-69
2024/02/26 02:25:57;;;;;;;1.88;1.65;;;8.90;99.90;;;;;;4972220;28;20103;-69
2024/02/26 02:28:25;;;;;;;1.75;0.80;;;8.80;99.90;;;;;;4989752;28;20130;-69
2024/02/26 02:30:51;;;;;;;0.38;0.32;;;8.80;99.90;;;;;;4959759;28;20035;-69
2024/02/26 02:33:17;;;;;;;0.68;0.50;;;8.70;99.90;;;;;;4963693;28;20130;-68
2024/02/26 02:35:43;;;;;;;2.67;0.65;;;8.70;99.90;;;;;;4967475;28;20089;-68
2024/02/26 02:38:09;;;;;;;0.73;0.52;;;8.60;99.90;;;;;;4960522;28;20035;-69
2024/02/26 02:40:34;;;;;;;2.00;0.55;;;8.50;99.90;;;;;;4972304;28;20612;-69
2024/02/26 02:43:01;;;;;;;1.02;0.57;;;8.40;99.90;;;;;;4978053;28;20571;-69
2024/02/26 02:45:28;;;;;;;2.03;0.70;;;8.40;99.90;;;;;;4976904;28;20034;-69
2024/02/26 02:47:54;;;;;;;0.70;0.52;;;8.30;99.90;;;;;;4981359;28;20034;-69
2024/02/26 02:50:20;;;;;;;0.75;0.60;;;8.30;99.90;;;;;;4982082;28;20030;-69
2024/02/26 02:52:46;;;;;;;2.72;0.85;;;8.10;99.90;;;;;;4983573;28;20397;-69
2024/02/26 02:55:12;;;;;;;1.65;0.57;;;8.00;99.90;;;;;;4980484;28;20039;-69
2024/02/26 02:57:42;;;;;;;1.20;0.55;;;8.00;99.90;;;;;;4985763;28;20066;-69
2024/02/26 03:00:09;;;;;;;0.30;0.30;;;8.00;99.90;;;;;;4982480;28;20035;-69
2024/02/26 03:02:35;;;;;;;0.57;0.30;;;8.00;99.90;;;;;;4997669;28;20067;-69
2024/02/26 03:05:03;;;;;;;0.52;0.40;;;8.00;99.90;;;;;;4980230;28;20059;-69
2024/02/26 03:07:29;;;;;;;1.58;0.50;;;8.00;99.90;;;;;;4981439;28;20031;-69
2024/02/26 03:09:55;;;;;;;0.55;0.45;;;8.00;99.90;;;;;;4978889;28;20336;-69
2024/02/26 03:12:20;;;;;;;0.65;0.40;;;8.00;99.90;;;;;;4985589;28;20486;-69
2024/02/26 03:14:46;;;;;;;1.58;0.68;;;8.00;99.90;;;;;;4963983;28;20031;-69
2024/02/26 03:17:12;;;;;;;1.45;0.65;;;8.00;99.90;;;;;;4996287;28;20041;-69
2024/02/26 03:19:38;;;;;;;0.65;0.50;;;7.90;99.90;;;;;;4985439;28;20038;-69
2024/02/26 03:22:04;;;;;;;0.70;0.52;;;7.90;99.90;;;;;;4979971;28;20141;-69
2024/02/26 03:24:30;;;;;;;1.38;0.68;;;7.90;99.90;;;;;;4979066;28;20464;-69
2024/02/26 03:26:56;;;;;;;0.85;0.50;;;7.90;99.90;;;;;;4983661;28;20471;-69
2024/02/26 03:29:22;;;;;;;1.85;0.95;;;7.90;99.90;;;;;;4984348;28;20033;-69
2024/02/26 03:31:48;;;;;;;0.55;0.43;;;7.80;99.90;;;;;;4999118;28;20387;-69
2024/02/26 03:34:14;;;;;;;1.80;0.82;;;7.70;99.90;;;;;;4980774;28;20035;-69
2024/02/26 03:36:43;;;;;;;6.20;0.30;;;7.70;99.90;;;;;;4993104;28;20027;-69
2024/02/26 03:39:09;;;;;;;1.45;0.55;;;7.60;99.90;;;;;;4979691;28;20125;-69
2024/02/26 03:41:35;;;;;;;1.40;0.60;;;7.70;99.90;;;;;;4979975;28;20063;-69
2024/02/26 03:44:01;;;;;;;2.35;0.30;;;7.60;99.90;;;;;;4980808;28;20546;-69
2024/02/26 03:46:27;;;;;;;1.02;0.50;;;7.60;99.90;;;;;;4965378;28;20031;-69
2024/02/26 03:48:53;;;;;;;1.23;0.88;;;7.60;99.90;;;;;;4980528;28;20493;-69
2024/02/26 03:51:19;;;;;;;1.48;0.60;;;7.60;99.90;;;;;;4980530;28;20489;-68
2024/02/26 03:53:45;;;;;;;1.45;0.50;;;7.50;99.90;;;;;;4981802;28;20022;-68
2024/02/26 03:56:13;;;;;;;1.25;0.80;;;7.50;99.90;;;;;;4979967;28;20090;-68
2024/02/26 03:58:39;;;;;;;1.15;0.70;;;7.40;99.90;;;;;;4998067;28;20030;-68
2024/02/26 04:01:08;;;;;;;1.35;0.73;;;7.40;99.90;;;;;;4979496;28;20023;-69
2024/02/26 04:03:34;;;;;;;1.55;0.88;;;7.40;99.90;;;;;;4978665;28;20049;-69
2024/02/26 04:06:00;;;;;;;1.58;0.77;;;7.40;99.90;;;;;;4976345;28;20598;-69
2024/02/26 04:08:26;;;;;;;1.63;1.48;;;7.30;99.90;;;;;;4964047;28;20039;-69
2024/02/26 04:10:52;;;;;;;0.40;0.20;;;7.30;99.90;;;;;;4969629;28;20031;-69
2024/02/26 04:13:18;;;;;;;1.83;0.70;;;7.30;99.90;;;;;;4979744;28;20026;-72
2024/02/26 04:15:44;;;;;;;0.30;0.30;;;7.30;99.90;;;;;;4979142;28;20023;-69
2024/02/26 04:18:10;;;;;;;1.40;0.65;;;7.30;99.90;;;;;;4977477;28;20475;-69
2024/02/26 04:20:35;;;;;;;1.58;0.77;;;7.30;99.90;;;;;;4982367;28;20034;-69
2024/02/26 04:23:03;;;;;;;2.28;0.63;;;7.30;99.90;;;;;;4977919;28;20365;-69
2024/02/26 04:25:29;;;;;;;0.25;0.25;;;7.30;99.90;;;;;;4981707;28;20027;-69
2024/02/26 04:27:55;;;;;;;0.45;0.40;;;7.30;99.90;;;;;;4972778;28;20081;-70
2024/02/26 04:30:21;;;;;;;0.30;0.30;;;7.30;99.90;;;;;;4962314;28;20065;-69
2024/02/26 04:32:46;;;;;;;1.17;0.95;;;7.30;99.90;;;;;;4973530;28;20113;-69
2024/02/26 04:35:12;;;;;;;2.28;0.93;;;7.30;99.90;;;;;;4977502;28;20037;-69
2024/02/26 04:37:38;;;;;;;0.82;0.47;;;7.40;99.90;;;;;;4983636;28;20499;-69
2024/02/26 04:40:05;;;;;;;2.35;0.70;;;7.40;99.90;;;;;;4982087;28;20035;-69
2024/02/26 04:42:30;;;;;;;0.68;0.50;;;7.40;99.90;;;;;;4981112;28;20106;-69
2024/02/26 04:44:56;;;;;;;0.75;0.30;;;7.40;99.90;;;;;;4979411;28;20133;-69
2024/02/26 04:47:22;;;;;;;1.13;0.75;;;7.40;99.90;;;;;;4980954;28;20495;-68
2024/02/26 04:49:50;;;;;;;0.73;0.45;;;7.40;99.90;;;;;;4979309;28;20531;-69
2024/02/26 04:52:16;;;;;;;1.02;0.52;;;7.40;99.90;;;;;;4979929;28;20026;-69
2024/02/26 04:54:42;;;;;;;2.15;0.50;;;7.50;99.90;;;;;;4983106;28;20103;-69
2024/02/26 04:57:07;;;;;;;0.75;0.40;;;7.40;99.90;;;;;;4981492;28;20092;-69
2024/02/26 04:59:33;;;;;;;0.65;0.50;;;7.40;99.90;;;;;;4980917;28;20035;-69
2024/02/26 05:01:59;;;;;;;0.45;0.38;;;7.40;99.90;;;;;;4979303;28;20042;-69
2024/02/26 05:04:24;;;;;;;0.73;0.57;;;7.40;99.90;;;;;;4980864;28;20033;-70
2024/02/26 05:06:50;;;;;;;2.60;1.52;;;7.40;99.90;;;;;;4975797;28;20125;-68
2024/02/26 05:09:16;;;;;;;1.42;0.95;;;7.40;99.90;;;;;;4981629;28;20595;-69
2024/02/26 05:11:42;;;;;;;3.58;2.15;;;7.40;99.90;;;;;;4979972;28;20050;-69
2024/02/26 05:14:08;;;;;;;1.85;0.77;;;7.50;99.90;;;;;;4980925;28;20476;-69
2024/02/26 05:16:34;;;;;;;0.82;0.63;;;7.50;99.90;;;;;;4975981;28;20053;-69
2024/02/26 05:18:59;;;;;;;0.20;0.20;;;7.60;99.90;;;;;;4995472;28;20471;-69
2024/02/26 05:21:25;;;;;;;1.52;0.95;;;7.70;99.90;;;;;;4978417;28;20533;-69
2024/02/26 05:23:51;;;;;;;0.30;0.30;;;7.70;99.90;;;;;;4996935;28;20023;-69
2024/02/26 05:26:22;;;;;;;0.82;0.40;;;7.70;99.90;;;;;;4980566;28;20077;-69
2024/02/26 05:28:48;;;;;;;0.57;0.47;;;7.80;99.90;;;;;;4996229;28;20060;-70
2024/02/26 05:31:14;;;;;;;0.47;0.30;;;7.90;99.90;;;;;;4976725;28;20038;-70
2024/02/26 05:33:40;;;;;;;0.70;0.60;;;7.80;99.90;;;;;;4993936;28;20086;-68
2024/02/26 05:36:06;;;;;;;0.40;0.15;;;7.90;99.90;;;;;;4978175;28;20103;-68
2024/02/26 05:38:32;;;;;;;0.10;0.10;;;7.90;99.90;;;;;;4977634;28;20564;-69
2024/02/26 05:40:59;;;;;;;1.80;0.25;;;7.90;99.90;;;;;;4981597;28;20153;-69
2024/02/26 05:43:26;;;;;;;0.65;0.28;;;8.00;99.90;;;;;;4978635;28;20030;-69
2024/02/26 05:45:52;;;;;;;0.45;0.38;;;8.00;99.90;;;;;;4935478;28;20098;-70
2024/02/26 05:48:19;;;;;;;0.10;0.10;;;8.00;99.90;;;;;;4955456;28;20028;-70
2024/02/26 05:50:45;;;;;;;0.28;0.28;;;8.00;99.90;;;;;;4954526;28;20087;-69
2024/02/26 05:53:11;;;;;;;0.20;0.20;;;8.10;99.90;;;;;;4956985;28;20023;-69
2024/02/26 05:55:37;;;;;;;0.10;0.10;;;8.00;99.90;;;;;;4954751;28;20042;-70
2024/02/26 05:58:04;;;;;;;0.73;0.50;;;8.00;99.90;;;;;;4949376;29;20038;-70
2024/02/26 06:00:29;;;;;;;0.17;0.17;;;8.00;99.90;;;;;;4938402;28;20039;-70
2024/02/26 06:02:55;;;;;;;1.40;0.80;;;8.00;99.90;;;;;;4947336;29;20045;-70
2024/02/26 06:05:21;;;;;;;0.80;0.77;;;8.10;99.90;;;;;;4950087;29;20035;-70
2024/02/26 06:07:47;;;;;;;0.50;0.40;;;8.10;99.90;;;;;;4953320;29;20100;-69
2024/02/26 06:10:15;;;;;;;0.93;0.50;;;8.00;99.90;;;;;;4944189;28;20031;-68
2024/02/26 06:12:41;;;;;;;0.63;0.40;;;8.00;99.90;;;;;;4953609;28;20031;-68
2024/02/26 06:15:09;;;;;;;1.92;0.98;;;8.00;99.90;;;;;;4959182;28;20039;-68
2024/02/26 06:17:34;;;;;;;0.40;0.40;;;8.00;99.90;;;;;;4944415;28;20114;-69
2024/02/26 06:20:01;;;;;;;0.30;0.20;;;8.00;99.90;;;;;;4948644;29;20178;-70
2024/02/26 06:22:27;;;;;;;0.77;0.32;;;8.00;99.90;;;;;;4950469;28;20090;-68
2024/02/26 06:24:53;;;;;;;0.50;0.38;;;8.00;99.90;;;;;;4953802;28;20159;-68
2024/02/26 06:27:18;;;;;;;0.20;0.20;;;8.10;99.90;;;;;;4955648;29;20118;-69
2024/02/26 06:29:44;;;;;;;0.52;0.30;;;8.00;99.90;;;;;;4954807;29;20035;-69
2024/02/26 06:32:10;;;;;;;0.75;0.40;;;8.00;99.90;;;;;;4954598;29;20043;-69
2024/02/26 06:34:35;;;;;;;0.60;0.38;;;7.90;99.90;;;;;;4953990;29;20047;-69
2024/02/26 06:37:03;;;;;;;0.73;0.52;;;7.90;99.90;;;;;;4953072;29;20031;-68
2024/02/26 06:39:29;;;;;;;1.90;0.57;;;8.00;99.90;;;;;;4955170;29;21877;-68
2024/02/26 06:42:00;;;;;;;0.30;0.30;;;8.00;99.90;;;;;;4952230;28;20061;-68
2024/02/26 06:44:31;;;;;;;1.45;0.40;;;7.90;99.90;;;;;;4955829;29;20024;-68
2024/02/26 06:47:01;;;;;;;0.30;0.20;;;7.90;99.90;;;;;;4948927;28;20087;-69
2024/02/26 06:49:27;;;;;;;0.30;0.30;;;7.90;99.90;;;;;;4954046;29;20024;-75
2024/02/26 06:51:53;;;;;;;0.40;0.30;;;7.90;99.90;;;;;;4953861;28;20042;-70
2024/02/26 06:54:19;;;;;;;0.20;0.20;;;7.90;99.90;;;;;;4956253;29;20447;-70
2024/02/26 06:56:45;;;;;;;0.85;0.47;;;7.90;99.90;;;;;;4952960;28;20027;-70
2024/02/26 06:59:11;;;;;;;0.45;0.30;;;7.90;99.90;;;;;;4970866;28;20492;-70
2024/02/26 07:01:36;;;;;;;1.60;0.47;;;7.80;99.90;;;;;;4951993;29;20033;-70
2024/02/26 07:04:02;;;;;;;0.95;0.65;;;7.80;99.90;;;;;;4950741;29;20031;-70
2024/02/26 07:06:28;;;;;;;3.53;0.57;;;7.80;99.90;;;;;;4953639;29;20023;-70
2024/02/26 07:08:54;;;;;;;0.50;0.30;;;7.80;99.90;;;;;;4948692;28;20059;-70
2024/02/26 07:11:20;;;;;;;1.25;0.60;;;7.80;99.90;;;;;;4941273;28;20039;-52
2024/02/26 07:13:46;;;;;;;1.00;0.47;;;7.80;99.90;;;;;;4949833;29;20035;-51
2024/02/26 07:16:12;;;;;;;4.63;1.10;;;7.90;99.90;;;;;;4955856;28;20094;-55
2024/02/26 07:18:43;;;;;;;0.80;0.50;;;7.90;99.90;;;;;;4951387;28;20048;-51
2024/02/26 07:21:09;;;;;;;2.00;0.28;;;7.90;99.90;;;;;;4955306;28;20070;-53
2024/02/26 07:23:35;;;;;;;1.13;0.55;;;7.90;99.90;;;;;;4942776;29;20031;-53
2024/02/26 07:26:01;;;;;;;2.13;1.42;;;7.90;99.90;;;;;;4955465;28;20546;-53
2024/02/26 07:28:26;;;;;;;0.57;0.40;;;7.90;99.90;;;;;;4956029;28;20046;-56
2024/02/26 07:30:52;;;;;;;0.30;0.30;;;7.90;99.90;;;;;;4970033;28;20046;-49
2024/02/26 07:33:18;;;;;;;0.70;0.57;;;7.90;99.90;;;;;;4938961;28;20078;-56
2024/02/26 07:35:44;;;;;;;0.40;0.38;;;8.00;99.90;;;;;;4947921;29;20369;-55
2024/02/26 07:38:10;;;;;;;0.80;0.50;;;8.00;99.90;;;;;;4955641;28;20042;-70
2024/02/26 07:40:36;;;;;;;0.47;0.45;;;8.00;99.90;;;;;;4946003;28;21255;-70
2024/02/26 07:43:02;;;;;;;0.45;0.40;;;8.00;99.90;;;;;;4952428;29;20106;-70
2024/02/26 07:45:27;;;;;;;1.65;0.43;;;8.00;99.90;;;;;;4965712;28;20047;-70
2024/02/26 07:47:53;;;;;;;0.90;0.60;;;8.00;99.90;;;;;;4950864;28;20198;-70
2024/02/26 07:50:22;;;;;;;0.60;0.52;;;8.00;99.90;;;;;;4943601;29;20085;-69
2024/02/26 07:52:48;;;;;;;1.83;1.15;;;8.00;99.90;;;;;;4946375;29;20544;-70
2024/02/26 07:55:14;;;;;;;1.25;0.55;;;8.00;99.90;;;;;;4954299;28;20043;-69
2024/02/26 07:57:43;;;;;;;2.47;0.80;;;8.10;99.90;;;;;;4946623;29;20030;-69
2024/02/26 08:00:10;;;;;;;0.47;0.22;;;8.10;99.90;;;;;;4961981;28;20386;-69
2024/02/26 08:02:39;;;;;;;0.13;0.13;;;8.10;99.90;;;;;;4953523;28;20400;-70
2024/02/26 08:05:05;;;;;;;0.70;0.57;;;8.20;99.90;;;;;;4947464;28;20395;-69
2024/02/26 08:07:31;;;;;;;1.88;0.93;;;8.20;99.90;;;;;;4952633;29;20078;-69
2024/02/26 08:09:57;;;;;;;4.47;1.00;;;8.20;99.90;;;;;;4963815;28;20509;-71
2024/02/26 08:12:23;;;;;;;0.45;0.40;;;8.20;99.90;;;;;;4951941;29;20119;-69
2024/02/26 08:14:48;;;;;;;1.90;1.13;;;8.20;99.90;;;;;;4967064;28;20114;-69
2024/02/26 08:17:14;;;;;;;2.92;0.93;;;8.20;99.90;;;;;;4953237;29;20070;-70
2024/02/26 08:19:40;;;;;;;3.38;1.17;;;8.20;99.90;;;;;;4954274;29;20500;-69
2024/02/26 08:22:05;;;;;;;0.98;0.50;;;8.30;99.90;;;;;;4953450;29;20035;-70
2024/02/26 08:24:31;;;;;;;1.20;0.40;;;8.30;99.90;;;;;;4953254;28;20028;-69
2024/02/26 08:26:57;;;;;;;2.85;1.60;;;8.40;99.90;;;;;;4954507;28;20064;-69
2024/02/26 08:29:22;;;;;;;3.72;0.98;;;8.60;99.90;;;;;;4952542;28;20054;-69
2024/02/26 08:31:48;;;;;;;0.77;0.63;;;8.60;99.90;;;;;;4947669;29;20714;-69
2024/02/26 08:34:14;;;;;;;2.35;1.15;;;8.60;99.90;;;;;;4946733;28;20045;-69
2024/02/26 08:36:40;;;;;;;1.02;0.35;;;8.80;99.90;;;;;;4961990;28;20677;-70
2024/02/26 08:39:07;;;;;;;1.65;0.73;;;8.80;99.90;;;;;;4953247;29;20058;-69
2024/02/26 08:41:32;;;;;;;0.38;0.30;;;8.90;99.90;;;;;;4947372;28;20039;-71
2024/02/26 08:43:58;;;;;;;1.75;0.40;;;9.00;99.90;;;;;;4951958;28;20102;-69
2024/02/26 08:46:24;;;;;;;2.55;0.60;;;9.00;99.90;;;;;;4946191;28;20222;-69
2024/02/26 08:48:50;;;;;;;0.80;0.55;;;9.10;99.90;;;;;;4953980;29;20027;-69
2024/02/26 08:51:16;;;;;;;0.98;0.85;;;9.10;99.90;;;;;;4947333;28;20485;-69
2024/02/26 08:53:41;;;;;;;0.93;0.70;;;9.20;99.90;;;;;;4945478;29;20085;-69
2024/02/26 08:56:07;;;;;;;3.33;2.28;;;9.20;99.90;;;;;;4944840;29;20036;-69
2024/02/26 08:58:33;;;;;;;129.07;13.52;;;9.20;99.90;;;;;;4934942;29;20031;-69
2024/02/26 09:00:58;;;;;;;12.32;3.03;;;9.20;99.90;;;;;;4933953;29;20035;-69
2024/02/26 09:03:24;;;;;;;0.90;0.47;;;9.30;99.90;;;;;;4952860;29;20043;-69
2024/02/26 09:05:50;;;;;;;1.92;1.02;;;9.30;99.90;;;;;;4950117;29;20035;-69
2024/02/26 09:08:16;;;;;;;12.05;2.95;;;9.40;99.90;;;;;;4950468;29;20027;-69
2024/02/26 09:10:42;;;;;;;1.63;0.82;;;9.30;99.90;;;;;;4951730;29;20586;-69
2024/02/26 09:13:08;;;;;;;0.68;0.60;;;9.30;99.90;;;;;;4950198;29;20469;-69
2024/02/26 09:15:33;;;;;;;1.90;0.63;;;9.40;99.90;;;;;;4966894;28;20043;-69
2024/02/26 09:17:59;;;;;;;25.40;2.67;;;9.40;99.90;;;;;;4949318;29;20045;-70
2024/02/26 09:20:25;;;;;;;7.15;0.80;;;9.40;99.90;;;;;;4953036;28;20436;-69
2024/02/26 09:22:51;;;;;;;0.20;0.20;;;9.50;99.90;;;;;;4948052;29;20058;-69
2024/02/26 09:25:18;;;;;;;0.70;0.45;;;9.60;99.90;;;;;;4953336;28;20126;-69
2024/02/26 09:27:45;;;;;;;3.03;0.82;;;9.60;99.90;;;;;;4944700;28;20126;-69
2024/02/26 09:30:12;;;;;;;1.00;0.55;;;9.60;99.90;;;;;;4951899;29;20387;-70
2024/02/26 09:32:38;;;;;;;0.38;0.20;;;9.60;99.90;;;;;;4943784;29;20067;-69
2024/02/26 09:35:05;;;;;;;0.55;0.30;;;9.70;99.90;;;;;;4951982;29;20039;-69
2024/02/26 09:37:32;;;;;;;1.20;0.77;;;9.70;99.90;;;;;;4945898;29;20035;-69
2024/02/26 09:39:58;;;;;;;1.55;0.55;;;9.70;99.90;;;;;;4939401;28;20078;-69
2024/02/26 09:42:26;;;;;;;0.55;0.43;;;9.80;99.90;;;;;;4947113;29;20110;-69
2024/02/26 09:44:55;;;;;;;0.95;0.50;;;9.90;99.90;;;;;;4951098;29;20023;-70
2024/02/26 09:47:23;;;;;;;0.75;0.45;;;10.00;99.90;;;;;;4950641;29;20035;-69
2024/02/26 09:49:51;;;;;;;0.95;0.50;;;10.10;99.90;;;;;;4951516;29;20031;-70
2024/02/26 09:52:20;;;;;;;0.77;0.45;;;10.20;99.90;;;;;;4946901;28;20047;-70
2024/02/26 09:54:49;;;;;;;0.60;0.35;;;10.30;99.90;;;;;;4953037;28;20028;-70
2024/02/26 09:57:17;;;;;;;6.13;0.50;;;10.50;99.90;;;;;;4946524;28;20047;-70
2024/02/26 09:59:46;;;;;;;0.45;0.30;;;10.60;99.90;;;;;;4943456;29;20027;-70
2024/02/26 10:02:14;;;;;;;0.00;0.00;;;10.60;99.90;;;;;;4946673;28;20405;-70
2024/02/26 10:04:41;;;;;;;2.80;0.73;;;10.40;99.90;;;;;;4951305;29;20038;-69
2024/02/26 10:07:12;;;;;;;0.30;0.20;;;10.30;99.90;;;;;;4947463;28;20043;-69
2024/02/26 10:09:38;;;;;;;1.17;0.73;;;10.30;99.90;;;;;;4950517;29;20829;-70
2024/02/26 10:12:05;;;;;;;3.58;0.73;;;10.40;99.90;;;;;;4945842;29;20049;-69
2024/02/26 10:14:31;;;;;;;0.70;0.40;;;10.50;99.90;;;;;;4950817;29;20364;-69
2024/02/26 10:16:58;;;;;;;2.55;0.55;;;10.60;99.90;;;;;;4950597;28;20034;-70
2024/02/26 10:19:29;;;;;;;0.98;0.73;;;10.70;99.90;;;;;;4952633;28;20035;-69
2024/02/26 10:22:00;;;;;;;2.25;0.90;;;10.70;99.90;;;;;;4949148;28;20042;-69
2024/02/26 10:24:27;;;;;;;31.95;2.63;;;10.90;99.90;;;;;;4950854;29;20078;-69
2024/02/26 10:26:55;;;;;;;28.58;6.60;;;11.00;99.90;;;;;;4947212;28;20123;-69
2024/02/26 10:29:23;;;;;;;1.08;0.63;;;11.40;99.90;;;;;;4951342;28;20033;-69
2024/02/26 10:31:51;;;;;;;1.00;0.82;;;11.30;99.90;;;;;;4946052;28;20027;-70
2024/02/26 10:34:17;;;;;;;0.32;0.30;;;11.20;99.90;;;;;;4951746;28;20023;-69
2024/02/26 10:36:43;;;;;;;1.88;0.38;;;11.20;99.90;;;;;;4945745;29;20027;-69
2024/02/26 10:39:12;;;;;;;21.63;2.83;;;11.30;99.90;;;;;;4952783;28;20046;-70
2024/02/26 10:41:38;;;;;;;1.40;0.43;;;11.60;99.90;;;;;;4944301;28;20028;-70
2024/02/26 10:44:04;;;;;;;0.30;0.17;;;11.90;99.90;;;;;;4950752;29;20444;-70
2024/02/26 10:46:30;;;;;;;0.52;0.32;;;12.10;99.90;;;;;;4961241;28;20035;-69
2024/02/26 10:48:56;;;;;;;0.73;0.45;;;12.10;99.90;;;;;;4969795;28;20031;-69
2024/02/26 10:51:30;;;;;;;2.47;0.70;;;12.30;99.90;;;;;;4942340;28;20059;-69
2024/02/26 10:54:04;;;;;;;1.60;0.90;;;12.60;99.90;;;;;;4950898;29;20023;-69
2024/02/26 10:56:33;;;;;;;1.33;0.52;;;13.10;99.90;;;;;;4950656;29;20031;-70
2024/02/26 10:58:59;;;;;;;0.60;0.28;;;13.50;99.90;;;;;;4951265;29;20035;-70
2024/02/26 11:01:29;;;;;;;1.63;0.60;;;13.70;99.90;;;;;;4944717;29;20046;-70
2024/02/26 11:03:55;;;;;;;2.30;0.17;;;13.70;99.90;;;;;;4950479;29;20370;-71
2024/02/26 11:06:22;;;;;;;0.57;0.25;;;13.70;99.90;;;;;;4940316;29;20063;-71
2024/02/26 11:08:53;;;;;;;0.85;0.20;;;13.50;99.90;;;;;;4948816;28;20062;-70
2024/02/26 11:11:20;;;;;;;0.63;0.40;;;14.10;99.90;;;;;;4948342;29;20067;-70
2024/02/26 11:13:50;;;;;;;1.25;0.57;;;15.50;99.90;;;;;;4945214;29;20679;-70
2024/02/26 11:16:21;;;;;;;0.60;0.17;;;15.00;99.90;;;;;;4945551;29;20054;-70
2024/02/26 11:18:49;;;;;;;0.40;0.20;;;14.10;99.90;;;;;;4968549;28;20548;-70
2024/02/26 11:21:19;;;;;;;1.08;0.77;;;13.70;99.90;;;;;;4966343;28;20051;-70
2024/02/26 11:23:46;;;;;;;1.90;0.40;;;13.60;99.90;;;;;;4947211;29;20038;-70
2024/02/26 11:26:15;;;;;;;0.40;0.28;;;13.90;99.90;;;;;;4951243;29;20357;-70
2024/02/26 11:28:41;;;;;;;0.15;0.10;;;13.50;99.90;;;;;;4944787;29;20032;-69
2024/02/26 11:31:08;;;;;;;0.22;0.20;;;12.90;99.90;;;;;;4950215;28;20051;-69
2024/02/26 11:33:38;;;;;;;0.45;0.20;;;12.70;99.90;;;;;;4947884;29;20098;-69
2024/02/26 11:36:14;;;;;;;0.30;0.25;;;13.00;99.90;;;;;;4953712;29;20043;-71
2024/02/26 11:38:40;;;;;;;0.60;0.30;;;12.90;99.90;;;;;;4944977;29;20035;-67
2024/02/26 11:41:07;;;;;;;0.98;0.50;;;13.20;99.90;;;;;;4950731;29;20504;-72
2024/02/26 11:44:00;;;;;;;2.85;1.15;;;12.90;99.90;;;;;;4948791;29;20035;-69
2024/02/26 11:46:43;;;;;;;0.40;0.30;;;13.70;99.90;;;;;;4952801;29;20050;-69
2024/02/26 11:49:24;;;;;;;1.23;0.10;;;13.70;99.90;;;;;;4947257;29;20046;-69
2024/02/26 11:51:54;;;;;;;0.85;0.25;;;14.00;99.90;;;;;;4954671;28;20039;-70
2024/02/26 11:54:48;;;;;;;0.40;0.22;;;14.50;99.90;;;;;;4949841;29;20067;-71
2024/02/26 11:57:36;;;;;;;0.32;0.20;;;14.40;99.90;;;;;;4964693;28;20066;-69
2024/02/26 12:00:22;;;;;;;0.13;0.13;;;14.40;99.90;;;;;;4924158;29;20070;-70
2024/02/26 12:02:57;;;;;;;0.90;0.40;;;14.10;99.90;;;;;;4939432;28;20031;-71
2024/02/26 12:05:26;;;;;;;1.75;0.28;;;13.70;99.90;;;;;;4951302;29;20031;-69
2024/02/26 12:08:00;;;;;;;0.70;0.38;;;14.00;99.90;;;;;;4951850;28;20051;-75
2024/02/26 12:10:39;;;;;;;0.38;0.20;;;14.20;99.90;;;;;;4953655;29;20031;-76
2024/02/26 12:13:15;;;;;;;0.17;0.13;;;14.00;99.90;;;;;;4944812;29;20046;-76
2024/02/26 12:15:58;;;;;;;1.77;0.65;;;13.80;99.90;;;;;;4945744;29;20023;-76
2024/02/26 12:18:24;;;;;;;0.10;0.10;;;14.00;99.90;;;;;;4950372;29;20042;-76
2024/02/26 12:21:03;;;;;;;0.52;0.20;;;13.80;99.90;;;;;;4953878;28;20119;-76
2024/02/26 12:23:29;;;;;;;0.20;0.15;;;14.70;99.90;;;;;;4950101;29;20043;-76
2024/02/26 12:26:00;;;;;;;0.88;0.60;;;15.20;99.90;;;;;;4952692;29;20027;-75
2024/02/26 12:28:29;;;;;;;0.82;0.30;;;15.50;99.90;;;;;;4951743;29;20063;-76
2024/02/26 12:30:55;;;;;;;0.50;0.30;;;14.90;99.90;;;;;;4946358;29;20512;-75
2024/02/26 12:33:21;;;;;;;0.57;0.35;;;14.10;99.90;;;;;;4952631;28;20034;-75
2024/02/26 12:35:48;;;;;;;0.50;0.40;;;14.80;99.90;;;;;;4946620;29;20369;-76
2024/02/26 12:38:15;;;;;;;3.70;0.50;;;15.80;99.60;;;;;;4938900;29;20046;-75
2024/02/26 12:40:41;;;;;;;0.45;0.10;;;16.80;97.40;;;;;;4953632;28;20031;-75
2024/02/26 12:43:12;;;;;;;1.23;0.63;;;17.60;96.00;;;;;;4936169;29;20699;-76
2024/02/26 12:45:41;;;;;;;1.20;0.32;;;19.30;91.40;;;;;;4950793;29;20111;-76
2024/02/26 12:48:07;;;;;;;2.15;0.40;;;22.20;81.90;;;;;;4953750;29;20031;-77
2024/02/26 12:50:33;;;;;;;0.43;0.10;;;19.80;83.30;;;;;;4944812;29;20034;-77
2024/02/26 12:52:59;;;;;;;0.70;0.40;;;19.10;83.80;;;;;;4965001;28;20492;-75
2024/02/26 12:55:26;;;;;;;0.82;0.30;;;18.10;87.80;;;;;;4949206;29;20027;-76